Saturday, July 21, 2018, 8:56 PM EDT
Back to Local

KBML, Berlin Municipal Airport

Location: Milan, NH, United States Lat: 44.583
Local Time: 8:56 PM EDT ( 0:56 GMT) Lon: -71.183
Time Zone: US/Eastern Elev: 1158 ft

Show me the last for .
Show Coded

Time T Td Feel RH Dir Speed Gust Alt SLP Vis Weather Sky Remarks
2018-07-21 19:52 71 52 76 50 140° 9 - 30.13 30.13 10 CLR 6-hr Min Temp (8pm): 71.1°F
6-hr Max Temp (8pm): 82.9°F
2018-07-21 18:52 77 53 78 43 140° 9 - 30.13 30.12 10 CLR None
2018-07-21 17:52 79 51 - 37 140° 9 - 30.13 30.12 10 CLR None
2018-07-21 16:52 81 53 - 38 150° 10 - 30.13 30.12 10 CLR None
2018-07-21 15:52 81 51 - 35 150° 7 - 30.13 30.13 10 CLR None
2018-07-21 14:52 82 50 - 32 180° 10 - 30.14 30.13 10 CLR None
2018-07-21 13:52 82 46 - 28 140° 9 - 30.15 30.14 10 CLR 6-hr Min Temp (2pm): 55.9°F
6-hr Max Temp (2pm): 82.0°F
2018-07-21 12:52 80 47 - 31 150° 7 - 30.16 30.15 10 CLR None
2018-07-21 11:52 79 52 - 39 110° 3 - 30.16 30.16 10 CLR None
2018-07-21 10:52 76 55 78 48 220° 5 - 30.18 30.17 10 CLR None
2018-07-21 09:52 71 55 76 56 Variable 3 - 30.19 30.18 10 CLR None
2018-07-21 08:52 65 56 - 72 - Calm - 30.19 30.19 10 CLR None
2018-07-21 07:52 56 55 - 96 - Calm - 30.21 30.20 10 SCT001 6-hr Min Temp (8am): 48.0°F
6-hr Max Temp (8am): 55.9°F
2018-07-21 07:44 54 54 - 100 - Calm - 30.20 - 3 BR BKN001 None
2018-07-21 07:40 54 54 - 100 - Calm - 30.21 - 1 BR OVC001 None
2018-07-21 07:33 54 54 - 100 - Calm - 30.21 - 0 BR OVC001 None
2018-07-21 07:28 54 54 - 100 - Calm - 30.21 - 1 BR OVC002 Variable visibility
2018-07-21 07:25 54 54 - 100 - Calm - 30.21 - 2 BR OVC002 Variable visibility
2018-07-21 07:22 53 53 - 100 - Calm - 30.21 - 1 BR OVC002 Variable visibility
2018-07-21 07:14 53 53 - 100 - Calm - 30.20 - 0 FG OVC001 None
2018-07-21 07:05 53 52 - 96 - Calm - 30.21 - 1 BR VV001 None
2018-07-21 06:52 51 51 - 100 - Calm - 30.21 30.20 0 FG VV001 None
2018-07-21 06:24 50 50 - 100 - Calm - 30.20 - 0 FG VV001 None
2018-07-21 06:10 51 50 - 96 - Calm - 30.20 - 0 FG VV002 None
2018-07-21 05:52 50 50 - 100 - Calm - 30.20 30.19 0 FG VV001 None
2018-07-21 05:35 49 49 - 100 - Calm - 30.19 - 0 FG VV001 None
2018-07-21 05:21 48 48 - 100 - Calm - 30.19 - 0 FG VV002 None
2018-07-21 05:14 48 48 - 100 - Calm - 30.19 - 0 FG VV001 None
2018-07-21 05:02 49 48 - 96 - Calm - 30.19 - 1 BR OVC001 None
2018-07-21 04:52 49 48 - 96 - Calm - 30.19 30.18 0 FG VV001 None
2018-07-21 04:09 50 49 - 96 - Calm - 30.18 - 0 FG VV001 None
2018-07-21 04:02 50 49 - 96 - Calm - 30.18 - 1 BR OVC001 None
2018-07-21 03:52 49 48 - 96 - Calm - 30.18 30.17 10 BKN001 None
2018-07-21 03:47 48 48 - 100 - Calm - 30.18 - 10 BKN001 None
2018-07-21 03:29 51 50 - 96 - Calm - 30.17 - 10 FEW001 None
2018-07-21 02:52 52 50 - 92 - Calm - 30.18 30.17 10 CLR None
2018-07-21 01:52 53 52 - 96 - Calm - 30.18 30.16 10 CLR 6-hr Min Temp (2am): 52.0°F
6-hr Max Temp (2am): 75.9°F
2018-07-21 00:52 54 53 - 96 - Calm - 30.17 30.16 10 CLR 24-hr Min Temp (1am): 46.0°F
24-hr Max Temp (1am): 86.0°F
2018-07-20 23:52 57 55 - 93 - Calm - 30.18 30.17 10 CLR None
2018-07-20 22:52 61 57 - 86 - Calm - 30.18 30.17 10 CLR None
2018-07-20 21:52 65 58 - 78 - Calm - 30.18 30.17 10 CLR None

Support USWX by starting your Amazon purchase here.